Agana Heights, GU

1:02 PM ChST on May 29, 2015 (GMT +1000)
Maite | | Change Station
CLOSE
Current Station
Personal Weather Station
Location: Maite, GU
Elevation: 140 ft
Nearby Weather Stations

Elev 140 ft 13.48 °N, 144.76 °E | Updated 6 seconds ago

Light Rain
Light Rain
79.4 °F
Feels Like 84 °F
N
7.0
Wind Variable Wind from SSE
Gusts 14.0 mph

Today
High -- | Low -- °F
--% Chance of Precip.
Yesterday
High -- | Low -- °F
Precip. -- in
5:52 AM 6:43 PM
Waxing Gibbous, 80% visible
Pressure 29.89 in
Visibility 9.0 miles
Clouds Scattered Clouds 4500 ft
Mostly Cloudy 7000 ft
Overcast 9000 ft
Heat Index 84 °F
Dew Point 76 °F
Humidity 90%
Rainfall 0.60 in
Snow Depth Not available.
UV 5.1 out of 12
Pollen Not available.
Air Quality Not available.
Flu Activity Regional
METAR PGUM 290254Z 14006KT 9SM -RA SCT045 BKN070 OVC090 26/24 A2991 RMK AO2 SLP121 P0001 60005 T02560239 58013 $

More Conditions Fewer Conditions

Pressure 29.89 in
Visibility 9.0 miles
Clouds Scattered Clouds 4500 ft
Mostly Cloudy 7000 ft
Overcast 9000 ft
Heat Index 84 °F
Dew Point 76 °F
Humidity 90%
Rainfall 0.60 in
Snow Depth Not available.
UV 5.1 out of 12
Pollen Not available.
Air Quality Not available.
Flu Activity Regional
METAR PGUM 290254Z 14006KT 9SM -RA SCT045 BKN070 OVC090 26/24 A2991 RMK AO2 SLP121 P0001 60005 T02560239 58013 $

More Conditions Fewer Conditions

10-Day Weather Forecast

Almanac

Astronomy

May. 29, 2015 Rise Set
Actual Time
Civil Twilight
Nautical Twilight
Astronomical Twilight
Moon
Length of Visible Light
Length of Day
Tomorrow will be .
, % of the Moon is Illuminated

Today's Extremes

State Highs State Lows

Community

WunderPhotos

Upload Photos

1,825,149 photos uploaded!

WunderBlogs® & News

Nearby

Air Quality

  Air Quality AQ Index Pollutant
Not available.

Snow Depth

Station Depth Elevation

Earthquake Activity

City Distance Mag. Time & Date
Minimum magnitude displayed is 2.5.

Coastal Water Temperatures

Place Temperature

Stations

Nearby Weather Stations

Station Location Temp. Windchill Dew Point Humidity Wind Precip. Elev Updated Type